Time;durP1;ratioP1;P1;durP2;ratioP2;P2;SDS_P1;SDS_P2;PMS_P1;PMS_P2;Temp;Humidity;BMP_temperature;BMP_pressure;BME280_temperature;BME280_humidity;BME280_pressure;Samples;Min_cycle;Max_cycle;Signal;HPM_P1;HPM_P2
2023/05/28 00:01:33;;;;;;;5.90;5.50;;;;;;;-144.30;100.00;85291.06;5132267;27;20681;-53
2023/05/28 00:04:01;;;;;;;6.38;5.88;;;;;;;-144.30;100.00;85312.94;5132187;27;20194;-54
2023/05/28 00:06:28;;;;;;;6.00;5.60;;;;;;;-144.30;100.00;85293.06;5132240;27;20194;-54
2023/05/28 00:08:55;;;;;;;5.65;5.20;;;;;;;-144.30;99.64;85277.16;5132010;27;20218;-54
2023/05/28 00:11:23;;;;;;;5.53;5.20;;;;;;;-144.30;100.00;85283.13;5129489;27;20584;-54
2023/05/28 00:13:50;;;;;;;5.60;5.20;;;;;;;-144.30;100.00;85297.03;5131784;27;20198;-56
2023/05/28 00:16:17;;;;;;;5.88;5.43;;;;;;;-144.30;100.00;85277.16;5131749;27;20188;-56
2023/05/28 00:18:44;;;;;;;6.05;5.63;;;;;;;-144.30;100.00;85310.94;5132153;27;20558;-56
2023/05/28 00:21:12;;;;;;;6.50;6.10;;;;;;;-144.30;100.00;85308.97;5131856;27;20201;-54
2023/05/28 00:23:40;;;;;;;5.53;5.13;;;;;;;-144.30;100.00;85287.09;5131560;27;20194;-53
2023/05/28 00:26:07;;;;;;;5.63;5.10;;;;;;;-144.30;100.00;85316.91;5131741;27;20200;-55
2023/05/28 00:28:34;;;;;;;5.97;5.35;;;;;;;-144.30;100.00;85293.06;5131528;27;20605;-54
2023/05/28 00:31:02;;;;;;;6.50;5.75;;;;;;;-144.30;100.00;85267.22;5129706;27;20215;-53
2023/05/28 00:33:29;;;;;;;6.32;5.63;;;;;;;-144.30;100.00;85322.88;5131939;27;20191;-53
2023/05/28 00:35:56;;;;;;;8.43;5.55;;;;;;;-144.30;100.00;85301.00;5131668;27;20198;-55
2023/05/28 00:38:24;;;;;;;5.47;5.07;;;;;;;-144.30;100.00;85314.94;5132580;27;20631;-53
2023/05/28 00:40:54;;;;;;;5.82;5.00;;;;;;;-144.30;100.00;85318.91;5132992;27;20773;-55
2023/05/28 00:43:21;;;;;;;6.00;5.50;;;;;;;-144.30;100.00;85344.75;5130539;27;20732;-55
2023/05/28 00:45:49;;;;;;;5.65;5.25;;;;;;;-144.30;100.00;85352.69;5122920;27;20225;-53
2023/05/28 00:48:16;;;;;;;6.05;5.32;;;;;;;-144.30;100.00;85316.91;5114470;27;20238;-53
2023/05/28 00:50:44;;;;;;;5.93;5.43;;;;;;;-144.30;100.00;85285.09;5112133;27;20190;-54
2023/05/28 00:53:12;;;;;;;5.88;5.40;;;;;;;-144.30;100.00;85316.91;5111992;28;20206;-54
2023/05/28 00:55:41;;;;;;;5.60;5.10;;;;;;;-144.30;99.78;85291.06;5111961;28;20207;-53
2023/05/28 00:58:08;;;;;;;7.18;5.03;;;;;;;-144.30;99.94;85308.97;5110972;28;20719;-53
2023/05/28 01:00:36;;;;;;;5.85;5.13;;;;;;;-144.30;100.00;85330.84;5112267;28;20205;-55
2023/05/28 01:03:03;;;;;;;6.13;5.30;;;;;;;-144.30;100.00;85328.84;5111900;28;20205;-54
2023/05/28 01:05:31;;;;;;;5.85;5.32;;;;;;;-144.30;99.99;85318.91;5111999;28;20255;-55
2023/05/28 01:08:00;;;;;;;5.32;4.88;;;;;;;-144.30;100.00;85342.75;5111840;28;20230;-53
2023/05/28 01:10:27;;;;;;;4.78;4.47;;;;;;;-144.30;100.00;85340.78;5111347;28;20636;-56
2023/05/28 01:12:56;;;;;;;5.28;4.95;;;;;;;-144.30;99.28;85320.91;5111620;28;20203;-55
2023/05/28 01:15:24;;;;;;;5.30;4.82;;;;;;;-144.30;98.94;85328.84;5111703;28;20205;-53
2023/05/28 01:17:57;;;;;;;5.15;4.70;;;;;;;-144.30;99.03;85332.81;5125113;27;20290;-53
2023/05/28 01:20:25;;;;;;;5.07;4.65;;;;;;;-144.30;98.55;85287.09;5132178;27;20285;-55
2023/05/28 01:22:56;;;;;;;6.03;4.63;;;;;;;-144.30;98.76;85330.84;5132099;27;20608;-55
2023/05/28 01:25:26;;;;;;;5.20;4.70;;;;;;;-144.30;98.35;85326.84;5131936;27;20254;-55
2023/05/28 01:27:52;;;;;;;5.68;4.80;;;;;;;-144.30;98.60;85273.19;5132034;27;20236;-55
2023/05/28 01:30:20;;;;;;;7.25;4.57;;;;;;;-144.30;97.93;85336.78;5131980;27;20216;-55
2023/05/28 01:32:47;;;;;;;5.45;4.97;;;;;;;-144.30;97.85;85324.88;5132067;27;20752;-53
2023/05/28 01:35:14;;;;;;;5.25;4.70;;;;;;;-144.30;97.05;85297.03;5131908;27;20316;-53
2023/05/28 01:37:47;;;;;;;5.22;4.72;;;;;;;-144.30;97.20;85299.03;5132068;27;20256;-55
2023/05/28 01:40:17;;;;;;;5.22;4.55;;;;;;;-144.30;96.89;85316.91;5131723;27;20190;-54
2023/05/28 01:42:46;;;;;;;4.75;4.45;;;;;;;-144.30;95.93;85336.78;5131614;27;20194;-55
2023/05/28 01:45:14;;;;;;;5.15;4.75;;;;;;;-144.30;96.24;85330.84;5131357;27;20198;-55
2023/05/28 01:47:41;;;;;;;5.38;4.97;;;;;;;-144.30;96.15;85346.72;5131161;27;20229;-55
2023/05/28 01:50:09;;;;;;;4.78;4.47;;;;;;;-144.30;95.89;85301.00;5131443;27;20190;-55
2023/05/28 01:52:36;;;;;;;4.53;4.13;;;;;;;-144.30;95.57;85326.84;5131412;27;20198;-55
2023/05/28 01:55:04;;;;;;;4.72;4.28;;;;;;;-144.30;94.82;85332.81;5131316;27;20189;-55
2023/05/28 01:57:31;;;;;;;4.85;4.43;;;;;;;-144.30;94.72;85303.00;5131260;27;20198;-55
2023/05/28 02:00:00;;;;;;;4.90;4.50;;;;;;;-144.30;94.51;85289.09;5131177;27;20190;-56
2023/05/28 02:02:27;;;;;;;5.05;4.75;;;;;;;-144.30;94.31;85308.97;5130893;27;20194;-56
2023/05/28 02:04:54;;;;;;;4.53;4.22;;;;;;;-144.30;94.22;85301.00;5131307;27;20194;-56
2023/05/28 02:07:21;;;;;;;9.68;4.30;;;;;;;-144.30;94.84;85322.88;5131618;27;20198;-56
2023/05/28 02:09:48;;;;;;;4.97;4.57;;;;;;;-144.30;94.70;85269.22;5132951;27;20217;-53
2023/05/28 02:12:15;;;;;;;5.07;4.68;;;;;;;-144.30;94.07;85348.72;5135847;27;20575;-55
2023/05/28 02:14:42;;;;;;;5.18;4.78;;;;;;;-144.30;94.43;85324.88;5135684;27;20662;-55
2023/05/28 02:17:12;;;;;;;4.60;4.30;;;;;;;-144.30;94.24;85312.94;5135760;27;20193;-53
2023/05/28 02:19:39;;;;;;;4.43;4.22;;;;;;;-144.30;94.00;85322.88;5135605;27;20197;-53
2023/05/28 02:22:11;;;;;;;4.45;4.25;;;;;;;-144.30;94.37;85350.72;5135639;27;20196;-55
2023/05/28 02:24:38;;;;;;;4.50;4.20;;;;;;;-144.30;93.99;85322.88;5135587;27;20277;-55
2023/05/28 02:27:05;;;;;;;4.60;4.30;;;;;;;-144.30;94.02;85344.75;5135531;27;20194;-55
2023/05/28 02:29:32;;;;;;;4.65;4.20;;;;;;;-144.30;94.17;85346.72;5135200;27;20252;-56
2023/05/28 02:32:00;;;;;;;5.00;4.70;;;;;;;-144.30;94.01;85348.72;5135386;27;20213;-56
2023/05/28 02:34:29;;;;;;;3.97;3.63;;;;;;;-144.30;93.97;85360.66;5135426;27;20200;-56
2023/05/28 02:36:56;;;;;;;5.13;4.50;;;;;;;-144.30;92.96;85301.00;5135296;27;20194;-56
2023/05/28 02:39:23;;;;;;;4.85;4.55;;;;;;;-144.30;92.65;85320.91;5135171;27;20228;-55
2023/05/28 02:41:50;;;;;;;4.85;4.45;;;;;;;-144.30;93.39;85340.78;5135289;27;20285;-55
2023/05/28 02:44:17;;;;;;;4.97;4.57;;;;;;;-144.30;93.27;85344.75;5135074;27;20189;-56
2023/05/28 02:46:44;;;;;;;4.75;4.40;;;;;;;-144.30;92.84;85350.72;5135059;27;20230;-55
2023/05/28 02:49:11;;;;;;;4.78;4.35;;;;;;;-144.30;92.36;85330.84;5135200;27;20224;-56
2023/05/28 02:51:39;;;;;;;5.05;4.75;;;;;;;-144.30;92.25;85303.00;5135206;27;20593;-55
2023/05/28 02:54:06;;;;;;;5.38;4.45;;;;;;;-144.30;92.31;85306.97;5135011;27;20693;-53
2023/05/28 02:56:33;;;;;;;4.43;4.13;;;;;;;-144.30;92.41;85344.75;5134846;27;20301;-53
2023/05/28 02:59:00;;;;;;;4.75;4.45;;;;;;;-144.30;93.05;85308.97;5134861;27;20196;-55
2023/05/28 03:01:27;;;;;;;4.82;4.38;;;;;;;-144.30;92.66;85291.06;5134443;27;20194;-55
2023/05/28 03:03:54;;;;;;;4.68;4.45;;;;;;;-144.30;92.31;85305.00;5134696;27;20624;-53
2023/05/28 03:06:21;;;;;;;5.22;4.78;;;;;;;-144.30;92.90;85295.06;5134680;27;20598;-55
2023/05/28 03:08:49;;;;;;;4.82;4.53;;;;;;;-144.30;92.75;85285.09;5135148;27;20267;-56
2023/05/28 03:11:16;;;;;;;5.20;4.80;;;;;;;-144.30;92.87;85305.00;5134449;27;20299;-53
2023/05/28 03:13:43;;;;;;;4.68;4.38;;;;;;;-144.30;93.57;85306.97;5134699;27;20297;-56
2023/05/28 03:16:10;;;;;;;6.70;4.88;;;;;;;-144.30;94.09;85289.09;5134601;27;20194;-56
2023/05/28 03:18:37;;;;;;;4.80;4.50;;;;;;;-144.30;94.09;85299.03;5134479;27;20194;-53
2023/05/28 03:21:04;;;;;;;4.93;4.57;;;;;;;-144.30;94.31;85291.06;5133575;27;20197;-53
2023/05/28 03:23:31;;;;;;;5.28;4.97;;;;;;;-144.30;94.94;85320.91;5134217;27;20201;-53
2023/05/28 03:25:59;;;;;;;5.32;5.03;;;;;;;-144.30;95.21;85177.75;5134327;27;20202;-55
2023/05/28 03:28:26;;;;;;;5.85;5.30;;;;;;;-144.30;95.22;85308.97;5134176;27;20193;-56
2023/05/28 03:30:58;;;;;;;5.95;4.78;;;;;;;-144.30;95.54;85301.00;5134253;27;20204;-56
2023/05/28 03:33:25;;;;;;;5.60;5.30;;;;;;;-144.30;96.24;85299.03;5134250;27;20207;-56
2023/05/28 03:35:52;;;;;;;5.68;5.28;;;;;;;-144.30;96.59;85607.16;5134334;27;20198;-54
2023/05/28 03:38:18;;;;;;;5.88;5.47;;;;;;;-144.30;96.92;85257.28;5134212;27;20822;-56
2023/05/28 03:40:45;;;;;;;7.22;5.75;;;;;;;-144.30;98.24;85271.19;5134245;27;20204;-56
2023/05/28 03:43:14;;;;;;;6.18;5.75;;;;;;;-144.30;98.27;85301.00;5134169;27;20194;-54
2023/05/28 03:45:41;;;;;;;5.65;5.15;;;;;;;-144.30;98.34;85336.78;5133637;27;20211;-53
2023/05/28 03:48:08;;;;;;;6.20;5.68;;;;;;;-144.30;98.20;85314.94;5133970;27;20263;-54
2023/05/28 03:50:35;;;;;;;5.72;5.22;;;;;;;-144.30;99.83;85310.94;5130197;27;20229;-56
2023/05/28 03:53:02;;;;;;;6.35;5.75;;;;;;;-144.30;99.99;85318.91;5126518;27;20385;-54
2023/05/28 03:55:28;;;;;;;6.47;5.35;;;;;;;-144.30;100.00;85364.63;5131989;27;20220;-54
2023/05/28 03:57:55;;;;;;;6.45;5.88;;;;;;;-144.30;100.00;85352.69;5132739;27;20224;-54
2023/05/28 04:00:24;;;;;;;6.55;6.15;;;;;;;-144.30;100.00;85364.63;5132741;27;20691;-53
2023/05/28 04:02:50;;;;;;;6.38;5.78;;;;;;;-144.30;100.00;85340.78;5132850;27;20218;-53
2023/05/28 04:05:17;;;;;;;6.25;5.70;;;;;;;-144.30;100.00;85328.84;5131290;27;20226;-54
2023/05/28 04:07:44;;;;;;;6.63;5.97;;;;;;;-144.30;100.00;85360.66;5132029;27;20714;-53
2023/05/28 04:10:11;;;;;;;6.15;5.75;;;;;;;-144.30;100.00;85342.75;5128943;27;20236;-56
2023/05/28 04:12:38;;;;;;;6.30;5.78;;;;;;;-144.30;99.30;85352.69;5129794;27;20772;-56
2023/05/28 04:15:07;;;;;;;6.50;5.75;;;;;;;-144.30;99.47;85334.81;5130868;27;20224;-55
2023/05/28 04:17:35;;;;;;;8.60;5.82;;;;;;;-144.30;99.08;85368.59;5130558;27;20213;-56
2023/05/28 04:20:05;;;;;;;6.90;6.03;;;;;;;-144.30;99.13;85376.56;5128235;27;20209;-56
2023/05/28 04:22:32;;;;;;;6.15;5.63;;;;;;;-144.30;98.80;85334.81;5130531;27;20221;-54
2023/05/28 04:24:58;;;;;;;5.75;5.38;;;;;;;-144.30;97.44;85314.94;5130148;27;20300;-54
2023/05/28 04:27:26;;;;;;;7.90;6.00;;;;;;;-144.30;96.89;85324.88;5130380;27;20575;-54
2023/05/28 04:29:54;;;;;;;9.63;6.25;;;;;;;-144.30;98.32;85362.63;5130572;27;20224;-54
2023/05/28 04:32:22;;;;;;;9.80;6.28;;;;;;;-144.30;99.01;85364.63;5129516;27;20213;-54
2023/05/28 04:34:51;;;;;;;7.10;6.60;;;;;;;-144.30;99.08;85336.78;5130378;27;20816;-53
2023/05/28 04:37:18;;;;;;;6.90;6.30;;;;;;;-144.30;99.87;85346.72;5130084;27;20222;-53
2023/05/28 04:39:45;;;;;;;6.45;5.95;;;;;;;-144.30;100.00;85320.91;5129590;27;20705;-55
2023/05/28 04:42:16;;;;;;;6.93;6.32;;;;;;;-144.30;100.00;85316.91;5129952;27;20708;-52
2023/05/28 04:44:44;;;;;;;7.13;6.53;;;;;;;-144.30;100.00;85352.69;5130412;27;20726;-54
2023/05/28 04:47:12;;;;;;;7.60;6.90;;;;;;;-144.30;100.00;85312.94;5129705;27;20233;-54
2023/05/28 04:49:40;;;;;;;9.68;6.82;;;;;;;-144.30;100.00;85382.53;5130464;27;20253;-54
2023/05/28 04:52:08;;;;;;;8.30;7.63;;;;;;;-144.30;100.00;85380.53;5130152;27;20222;-53
2023/05/28 04:54:35;;;;;;;10.63;7.60;;;;;;;-144.30;100.00;85368.59;5130040;27;20225;-53
2023/05/28 04:57:04;;;;;;;7.60;6.85;;;;;;;-144.30;100.00;85404.38;5131380;27;20597;-53
2023/05/28 04:59:32;;;;;;;8.82;7.00;;;;;;;-144.30;100.00;85396.44;5131084;27;20210;-53
2023/05/28 05:01:58;;;;;;;8.03;7.20;;;;;;;-144.30;100.00;85392.47;5131167;27;20225;-56
2023/05/28 05:04:25;;;;;;;7.82;7.25;;;;;;;-144.30;100.00;85380.53;5131262;27;20218;-56
2023/05/28 05:06:52;;;;;;;7.80;6.97;;;;;;;-144.30;100.00;85396.44;5131472;27;20249;-56
2023/05/28 05:09:21;;;;;;;8.00;7.20;;;;;;;-144.30;100.00;85382.53;5131052;27;20772;-55
2023/05/28 05:11:48;;;;;;;8.10;7.40;;;;;;;-144.30;100.00;85392.47;5129650;27;20627;-56
2023/05/28 05:14:14;;;;;;;8.13;7.28;;;;;;;-144.30;100.00;85376.56;5128067;27;20229;-55
2023/05/28 05:16:42;;;;;;;7.70;6.97;;;;;;;-144.30;100.00;85376.56;5129215;27;20623;-55
2023/05/28 05:19:08;;;;;;;7.72;6.90;;;;;;;-144.30;100.00;85380.53;5131035;27;20218;-56
2023/05/28 05:21:35;;;;;;;6.68;6.28;;;;;;;-144.30;100.00;85334.81;5130985;27;20334;-56
2023/05/28 05:24:03;;;;;;;7.55;6.95;;;;;;;-144.30;100.00;85376.56;5130310;27;20231;-56
2023/05/28 05:26:31;;;;;;;7.28;6.72;;;;;;;-144.30;100.00;85366.63;5127229;27;20247;-57
2023/05/28 05:28:58;;;;;;;7.38;6.88;;;;;;;-144.30;100.00;85372.56;5130515;27;20224;-56
2023/05/28 05:31:25;;;;;;;8.20;7.50;;;;;;;-144.30;100.00;85368.59;5129948;27;20236;-55
2023/05/28 05:33:52;;;;;;;7.93;7.28;;;;;;;-144.30;100.00;85386.50;5130154;27;20218;-56
2023/05/28 05:36:19;;;;;;;7.30;6.72;;;;;;;-144.30;100.00;85372.56;5129749;27;20264;-53
2023/05/28 05:38:46;;;;;;;7.30;6.60;;;;;;;-144.30;100.00;85356.69;5130430;27;20214;-54
2023/05/28 05:41:13;;;;;;;7.13;6.50;;;;;;;-144.30;100.00;85382.53;5129355;27;20695;-53
2023/05/28 05:43:41;;;;;;;7.90;7.03;;;;;;;-144.30;100.00;85384.50;5130133;27;20224;-54
2023/05/28 05:46:08;;;;;;;7.13;6.63;;;;;;;-144.30;100.00;85249.34;5131520;27;20245;-54
2023/05/28 05:48:35;;;;;;;7.88;6.50;;;;;;;-144.30;100.00;85364.63;5130251;27;20706;-54
2023/05/28 05:51:02;;;;;;;7.82;7.20;;;;;;;-144.30;100.00;85400.41;5130272;27;20226;-54
2023/05/28 05:53:29;;;;;;;8.73;7.85;;;;;;;-144.30;100.00;85370.59;5128956;27;20217;-54
2023/05/28 05:55:56;;;;;;;8.48;7.63;;;;;;;-144.30;100.00;85376.56;5129887;28;20213;-54
2023/05/28 05:58:23;;;;;;;9.30;7.80;;;;;;;-144.30;100.00;85408.34;5130198;27;20225;-53
2023/05/28 06:00:51;;;;;;;8.30;7.60;;;;;;;-144.30;100.00;85414.31;5130466;28;20221;-55
2023/05/28 06:03:18;;;;;;;11.40;8.35;;;;;;;-144.30;100.00;85452.09;5130171;27;20218;-55
2023/05/28 06:05:45;;;;;;;8.85;8.15;;;;;;;-144.30;100.00;85376.56;5129387;28;20216;-54
2023/05/28 06:08:12;;;;;;;9.00;8.30;;;;;;;-144.30;100.00;85384.50;5128926;27;20221;-54
2023/05/28 06:10:39;;;;;;;9.77;8.88;;;;;;;-144.30;100.00;85372.56;5128728;28;20214;-54
2023/05/28 06:13:06;;;;;;;10.88;8.55;;;;;;;-144.30;100.00;85408.34;5128776;27;20744;-54
2023/05/28 06:15:34;;;;;;;9.43;8.25;;;;;;;-144.30;100.00;85370.59;5127869;27;20236;-54
2023/05/28 06:18:03;;;;;;;12.15;9.18;;;;;;;-144.30;100.00;85380.53;5126124;27;20237;-54
2023/05/28 06:20:30;;;;;;;9.50;8.40;;;;;;;-144.30;100.00;85388.47;5128553;28;20222;-53
2023/05/28 06:22:57;;;;;;;9.95;8.95;;;;;;;-144.30;100.00;85378.53;5128894;27;20705;-54
2023/05/28 06:25:25;;;;;;;11.73;8.75;;;;;;;-144.30;100.00;85386.50;5127997;27;20221;-55
2023/05/28 06:27:52;;;;;;;9.73;8.05;;;;;;;-144.30;100.00;85424.25;5129636;27;20217;-56
2023/05/28 06:30:19;;;;;;;9.40;7.30;;;;;;;-144.30;100.00;85390.47;5129053;27;20286;-55
2023/05/28 06:32:45;;;;;;;7.82;7.03;;;;;;;-144.30;100.00;85398.41;5129456;27;20247;-56
2023/05/28 06:35:14;;;;;;;8.93;8.10;;;;;;;-144.30;100.00;85382.53;5129314;28;20214;-56
2023/05/28 06:37:41;;;;;;;8.73;7.88;;;;;;;-144.30;100.00;85400.41;5129347;27;20708;-56
2023/05/28 06:40:10;;;;;;;7.20;6.60;;;;;;;-144.30;100.00;85408.34;5129175;28;20571;-56
2023/05/28 06:42:37;;;;;;;7.13;6.63;;;;;;;-144.30;100.00;85378.53;5128899;27;20217;-56
2023/05/28 06:45:04;;;;;;;7.70;6.95;;;;;;;-144.30;100.00;85420.28;5129713;27;20244;-56
2023/05/28 06:47:31;;;;;;;8.13;7.22;;;;;;;-144.30;100.00;85356.69;5129028;27;20230;-56
2023/05/28 06:50:00;;;;;;;7.40;6.68;;;;;;;-144.30;100.00;85352.69;5129570;28;20226;-56
2023/05/28 06:52:29;;;;;;;7.68;7.05;;;;;;;-144.30;100.00;85316.91;5129699;27;20249;-53
2023/05/28 06:54:56;;;;;;;8.55;6.45;;;;;;;-144.30;100.00;85320.91;5129395;27;20261;-54
2023/05/28 06:57:23;;;;;;;8.27;6.75;;;;;;;-144.30;100.00;85301.00;5132215;27;20638;-54
2023/05/28 06:59:50;;;;;;;7.00;6.30;;;;;;;-144.30;100.00;85340.78;5134022;27;20225;-54
2023/05/28 07:02:17;;;;;;;6.65;6.15;;;;;;;-144.30;100.00;85316.91;5133534;27;20221;-54
2023/05/28 07:04:44;;;;;;;6.75;6.15;;;;;;;-144.30;100.00;85338.78;5132985;27;20222;-54
2023/05/28 07:07:11;;;;;;;7.47;6.88;;;;;;;-144.30;100.00;85853.69;5132681;27;20220;-54
2023/05/28 07:09:40;;;;;;;7.95;6.90;;;;;;;-144.30;100.00;85336.78;5132257;27;20225;-56
2023/05/28 07:12:08;;;;;;;8.32;7.47;;;;;;;-144.30;100.00;85295.06;5132230;27;20298;-55
2023/05/28 07:14:35;;;;;;;7.40;6.85;;;;;;;-144.30;100.00;85340.78;5131721;27;20221;-57
2023/05/28 07:17:02;;;;;;;7.55;6.90;;;;;;;-144.30;100.00;85356.69;5132109;27;20206;-56
2023/05/28 07:19:30;;;;;;;7.53;6.93;;;;;;;-144.30;100.00;85340.78;5132250;27;20217;-57
2023/05/28 07:21:57;;;;;;;7.57;6.85;;;;;;;-144.30;100.00;85318.91;5132305;27;20725;-56
2023/05/28 07:24:25;;;;;;;9.38;7.75;;;;;;;-144.30;100.00;85308.97;5131318;27;20230;-56
2023/05/28 07:26:53;;;;;;;9.55;7.68;;;;;;;-144.30;100.00;85285.09;5128184;27;20221;-55
2023/05/28 07:29:20;;;;;;;7.53;6.85;;;;;;;-144.30;100.00;85306.97;5132310;27;20228;-55
2023/05/28 07:31:47;;;;;;;8.35;6.53;;;;;;;-144.30;100.00;85299.03;5132254;27;20237;-55
2023/05/28 07:34:13;;;;;;;6.85;6.25;;;;;;;-144.30;100.00;85283.13;5132167;27;20210;-54
2023/05/28 07:36:40;;;;;;;7.15;6.55;;;;;;;-144.30;100.00;85308.97;5131780;27;20802;-55
2023/05/28 07:39:08;;;;;;;8.68;6.47;;;;;;;-144.30;100.00;85305.00;5130357;27;20251;-54
2023/05/28 07:41:35;;;;;;;7.38;6.50;;;;;;;-144.30;100.00;85303.00;5131843;27;20606;-56
2023/05/28 07:44:03;;;;;;;7.22;6.20;;;;;;;-144.30;100.00;85342.75;5132941;27;20214;-57
2023/05/28 07:46:30;;;;;;;7.40;6.70;;;;;;;-144.30;100.00;85332.81;5132532;27;20233;-57
2023/05/28 07:48:57;;;;;;;6.75;6.10;;;;;;;-144.30;100.00;85346.72;5132864;27;20218;-57
2023/05/28 07:51:25;;;;;;;7.30;6.10;;;;;;;-144.30;100.00;85183.72;5133039;27;20225;-57
2023/05/28 07:53:53;;;;;;;6.22;5.72;;;;;;;-144.30;100.00;85360.66;5130274;27;20222;-56
2023/05/28 07:56:21;;;;;;;7.10;5.70;;;;;;;-144.30;100.00;85346.72;5131664;27;20656;-55
2023/05/28 07:58:48;;;;;;;5.95;5.45;;;;;;;-144.30;100.00;85301.00;5131801;27;20623;-57
2023/05/28 08:01:16;;;;;;;6.18;5.57;;;;;;;-144.30;100.00;85344.75;5132048;27;20222;-56
2023/05/28 08:03:43;;;;;;;5.35;4.90;;;;;;;-144.30;100.00;85360.66;5131713;27;20245;-56
2023/05/28 08:06:10;;;;;;;6.55;4.95;;;;;;;-144.30;100.00;85312.94;5130723;27;20224;-57
2023/05/28 08:08:37;;;;;;;7.70;7.07;;;;;;;-144.30;100.00;85368.59;5129814;27;20260;-56
2023/05/28 08:11:04;;;;;;;6.07;5.50;;;;;;;-144.30;100.00;85320.91;5131438;27;20229;-56
2023/05/28 08:13:31;;;;;;;9.43;5.25;;;;;;;-144.30;100.00;85279.16;5130945;27;20229;-57
2023/05/28 08:15:59;;;;;;;5.75;5.32;;;;;;;-144.30;100.00;85185.72;5131429;27;20217;-56
2023/05/28 08:18:28;;;;;;;5.25;4.85;;;;;;;-144.30;100.00;85265.22;5130988;27;20245;-56
2023/05/28 08:20:55;;;;;;;4.93;4.43;;;;;;;-144.30;100.00;85239.38;5131416;27;20217;-57
2023/05/28 08:23:21;;;;;;;5.20;4.70;;;;;;;-144.30;100.00;85237.41;5130442;27;20214;-57
2023/05/28 08:25:48;;;;;;;12.20;10.10;;;;;;;-144.30;100.00;85203.59;5130919;27;20222;-55
2023/05/28 08:28:18;;;;;;;6.60;5.75;;;;;;;-144.30;100.00;85181.75;5131013;27;20230;-55
2023/05/28 08:30:45;;;;;;;8.13;7.22;;;;;;;-144.30;100.00;85159.88;5131365;27;20221;-55
2023/05/28 08:33:12;;;;;;;6.10;5.57;;;;;;;-144.30;100.00;85149.94;5131243;27;20718;-55
2023/05/28 08:35:40;;;;;;;10.43;8.20;;;;;;;-144.30;99.30;85074.41;5130917;27;20221;-55
2023/05/28 08:38:07;;;;;;;6.88;6.07;;;;;;;-144.30;98.40;85072.41;5130399;27;20221;-55
2023/05/28 08:40:40;;;;;;;10.07;7.93;;;;;;;-144.30;96.92;84945.19;5130619;27;20214;-55
2023/05/28 08:43:07;;;;;;;7.68;6.55;;;;;;;-144.30;95.40;84911.41;5130935;27;20225;-55
2023/05/28 08:45:35;;;;;;;7.90;6.93;;;;;;;-144.30;94.00;84893.53;5130550;27;20210;-55
2023/05/28 08:48:02;;;;;;;6.00;5.40;;;;;;;-144.30;92.66;84823.94;5129888;27;20590;-55
2023/05/28 08:50:30;;;;;;;5.68;5.22;;;;;;;-144.30;92.28;84827.94;5130703;27;20306;-56
2023/05/28 08:53:02;;;;;;;18.10;15.13;;;;;;;-144.30;91.24;84742.47;5129896;27;20261;-57
2023/05/28 08:55:29;;;;;;;23.27;17.80;;;;;;;-144.30;88.94;84728.56;5130618;27;20219;-58
2023/05/28 08:57:57;;;;;;;5.68;5.28;;;;;;;-144.30;87.66;84754.38;5130861;27;20309;-56
2023/05/28 09:00:24;;;;;;;12.93;10.73;;;;;;;-144.30;87.33;84768.31;5129811;27;20214;-54
2023/05/28 09:02:51;;;;;;;10.32;8.05;;;;;;;-144.30;87.94;84784.19;5129296;27;20222;-55
2023/05/28 09:05:18;;;;;;;5.13;4.70;;;;;;;-144.30;88.32;84812.03;5130305;27;20232;-56
2023/05/28 09:07:45;;;;;;;14.18;12.27;;;;;;;-144.30;87.49;84814.00;5129858;27;20253;-56
2023/05/28 09:10:14;;;;;;;11.30;9.23;;;;;;;-144.30;88.40;84843.84;5130322;27;20232;-56
2023/05/28 09:12:58;;;;;;;23.00;17.13;;;;;;;-144.30;88.91;84782.22;5130416;27;20481;-58
2023/05/28 09:15:25;;;;;;;20.70;16.48;;;;;;;-144.30;88.62;84786.19;5130090;27;20231;-56
2023/05/28 09:17:52;;;;;;;16.25;13.52;;;;;;;-144.30;87.08;84792.16;5130605;27;21002;-56
2023/05/28 09:20:19;;;;;;;12.55;11.30;;;;;;;-144.30;87.25;84804.06;5129317;27;20221;-56
2023/05/28 09:22:46;;;;;;;12.88;11.52;;;;;;;-144.30;87.31;84752.41;5129675;27;20224;-56
2023/05/28 09:25:14;;;;;;;5.97;5.53;;;;;;;-144.30;87.67;84776.25;5130130;27;20221;-56
2023/05/28 09:27:45;;;;;;;6.00;4.88;;;;;;;-144.30;88.18;84778.25;5129986;27;20218;-56
2023/05/28 09:30:13;;;;;;;5.60;5.15;;;;;;;-144.30;87.53;84810.03;5130134;27;20710;-55
2023/05/28 09:32:40;;;;;;;4.82;4.43;;;;;;;-144.30;86.85;84754.38;5129787;27;20610;-55
2023/05/28 09:35:08;;;;;;;5.95;5.07;;;;;;;-144.30;87.14;84754.38;5129853;27;20309;-56
2023/05/28 09:37:35;;;;;;;5.50;5.00;;;;;;;-144.30;86.29;84740.47;5129266;27;20713;-57
2023/05/28 09:40:04;;;;;;;5.03;4.63;;;;;;;-144.30;86.35;84690.78;5129827;27;20221;-56
2023/05/28 09:42:41;;;;;;;4.68;4.32;;;;;;;-144.30;82.91;84637.13;5137407;27;20228;-56
2023/05/28 09:45:10;;;;;;;9.77;8.88;;;;;;;-144.30;81.69;84615.25;5129189;27;20233;-56
2023/05/28 09:47:43;;;;;;;9.43;8.63;;;;;;;-144.30;81.67;84533.78;5130467;27;20613;-57
2023/05/28 09:50:11;;;;;;;6.18;5.63;;;;;;;-144.30;79.53;84505.94;5131274;27;20240;-57
2023/05/28 09:52:39;;;;;;;4.32;4.03;;;;;;;-144.30;79.77;84509.94;5131084;27;20581;-57
2023/05/28 09:55:08;;;;;;;3.60;3.17;;;;;;;-144.30;79.99;84567.56;5131053;27;20201;-56
2023/05/28 09:57:41;;;;;;;2.92;2.80;;;;;;;-144.30;79.37;84436.38;5130316;27;20194;-55
2023/05/28 10:00:19;;;;;;;3.88;3.30;;;;;;;-144.30;78.76;84468.19;5131081;27;20198;-55
2023/05/28 10:02:56;;;;;;;4.78;3.22;;;;;;;-144.30;76.98;84390.69;5131210;27;20204;-57
2023/05/28 10:05:24;;;;;;;4.20;3.38;;;;;;;-144.30;76.93;84342.97;5131223;27;20197;-54
2023/05/28 10:07:54;;;;;;;4.72;4.10;;;;;;;-144.30;75.72;84331.06;5131349;27;20200;-54
2023/05/28 10:10:22;;;;;;;3.40;3.20;;;;;;;-144.30;74.95;84339.00;5130605;27;20197;-54
2023/05/28 10:12:53;;;;;;;3.03;2.83;;;;;;;-144.30;75.39;84289.31;5130373;27;20686;-54
2023/05/28 10:15:20;;;;;;;3.70;3.50;;;;;;;-144.30;74.14;84247.59;5130844;27;20204;-55
2023/05/28 10:17:49;;;;;;;3.63;3.33;;;;;;;-144.30;72.80;84209.84;5130695;27;20605;-54
2023/05/28 10:20:17;;;;;;;4.72;4.05;;;;;;;-144.30;73.56;84265.47;5130076;27;20579;-54
2023/05/28 10:22:44;;;;;;;3.92;3.70;;;;;;;-144.30;74.39;84344.97;5130529;27;20204;-55
2023/05/28 10:25:10;;;;;;;3.97;3.67;;;;;;;-144.30;75.31;84372.78;5130605;28;20669;-55
2023/05/28 10:27:44;;;;;;;4.82;4.35;;;;;;;-144.30;76.29;84412.53;5130621;27;20194;-55
2023/05/28 10:30:13;;;;;;;5.68;4.00;;;;;;;-144.30;75.92;84478.13;5131133;27;20759;-55
2023/05/28 10:32:42;;;;;;;4.32;3.75;;;;;;;-144.30;76.68;84503.97;5132568;27;20233;-55
2023/05/28 10:35:11;;;;;;;4.75;3.70;;;;;;;-144.30;76.52;84468.19;5127758;27;20206;-56
2023/05/28 10:37:38;;;;;;;3.95;3.65;;;;;;;-144.30;77.18;84498.00;5133145;27;20638;-55
2023/05/28 10:40:10;;;;;;;6.53;4.55;;;;;;;-144.30;77.20;84458.25;5133157;27;20190;-54
2023/05/28 10:42:41;;;;;;;3.78;3.58;;;;;;;-144.30;75.45;84362.84;5130988;27;20178;-53
2023/05/28 10:45:10;;;;;;;3.65;3.35;;;;;;;-144.30;73.97;84410.56;5133124;27;20582;-54
2023/05/28 10:47:40;;;;;;;4.20;3.40;;;;;;;-144.30;73.32;84394.66;5132543;27;20771;-53
2023/05/28 10:50:14;;;;;;;3.30;3.10;;;;;;;-144.30;73.10;84354.91;5131823;27;20204;-54
2023/05/28 10:52:42;;;;;;;4.72;4.43;;;;;;;-144.30;74.21;84378.75;5129099;27;20224;-55
2023/05/28 10:55:10;;;;;;;21.70;16.55;;;;;;;-144.30;74.04;84404.59;5132087;27;20226;-54
2023/05/28 10:57:42;;;;;;;4.90;4.60;;;;;;;-144.30;76.16;84472.16;5131696;27;20221;-55
2023/05/28 11:00:13;;;;;;;5.30;3.78;;;;;;;-144.30;76.61;84422.47;5131424;27;20222;-55
2023/05/28 11:02:43;;;;;;;3.95;3.65;;;;;;;-144.30;79.03;84581.47;5132089;27;20275;-54
2023/05/28 11:05:10;;;;;;;5.65;5.13;;;;;;;-144.30;80.29;84593.41;5131412;27;20222;-54
2023/05/28 11:07:39;;;;;;;4.30;4.00;;;;;;;-144.30;81.39;84625.19;5130534;27;20640;-55
2023/05/28 11:10:07;;;;;;;6.22;5.72;;;;;;;-144.30;82.91;84684.81;5132509;27;20213;-55
2023/05/28 11:12:36;;;;;;;5.38;4.88;;;;;;;-144.30;85.18;84676.88;5131102;27;20691;-54
2023/05/28 11:15:05;;;;;;;13.38;6.15;;;;;;;-144.30;87.71;84734.50;5131690;27;20186;-53